Time;durP1;ratioP1;P1;durP2;ratioP2;P2;SDS_P1;SDS_P2;PMS_P1;PMS_P2;Temp;Humidity;BMP_temperature;BMP_pressure;BME280_temperature;BME280_humidity;BME280_pressure;Samples;Min_cycle;Max_cycle;Signal;HPM_P1;HPM_P2
2022/05/03 00:01:42;;;;;;;11.90;5.77;;;13.60;99.90;;;;;;5049656;28;20487;-59
2022/05/03 00:04:33;;;;;;;12.20;6.65;;;13.60;99.90;;;;;;5048757;28;20052;-58
2022/05/03 00:07:13;;;;;;;10.93;6.70;;;13.50;99.90;;;;;;5049060;28;20128;-58
2022/05/03 00:10:04;;;;;;;8.98;6.03;;;13.50;99.90;;;;;;5029985;28;20049;-58
2022/05/03 00:12:37;;;;;;;10.25;5.85;;;13.40;99.90;;;;;;5048089;28;20080;-58
2022/05/03 00:15:05;;;;;;;10.32;5.63;;;13.40;99.90;;;;;;5048588;28;20576;-57
2022/05/03 00:17:32;;;;;;;11.65;6.80;;;13.30;99.90;;;;;;5049049;28;20076;-57
2022/05/03 00:19:59;;;;;;;10.13;6.45;;;13.40;99.90;;;;;;5036753;28;20057;-57
2022/05/03 00:22:26;;;;;;;9.40;6.28;;;13.30;99.90;;;;;;5044735;28;20118;-58
2022/05/03 00:24:55;;;;;;;10.05;5.90;;;13.30;99.90;;;;;;5034320;28;20128;-58
2022/05/03 00:27:26;;;;;;;9.80;5.88;;;13.30;99.90;;;;;;5045638;28;20059;-58
2022/05/03 00:29:53;;;;;;;10.30;6.30;;;13.20;99.90;;;;;;5049647;28;20106;-59
2022/05/03 00:32:21;;;;;;;10.82;7.43;;;13.20;99.90;;;;;;5049070;28;20132;-58
2022/05/03 00:34:48;;;;;;;8.32;6.18;;;13.10;99.90;;;;;;5048749;28;20084;-58
2022/05/03 00:37:16;;;;;;;8.27;5.90;;;13.10;99.90;;;;;;5045874;28;20127;-58
2022/05/03 00:39:42;;;;;;;8.02;5.97;;;13.00;99.90;;;;;;5042605;28;20527;-58
2022/05/03 00:42:20;;;;;;;10.18;6.75;;;12.90;99.90;;;;;;5049217;28;20084;-57
2022/05/03 00:45:02;;;;;;;9.60;6.43;;;12.90;99.90;;;;;;5048161;28;20049;-58
2022/05/03 00:47:32;;;;;;;10.70;6.45;;;12.80;99.90;;;;;;4697832;28;9999791;-58
2022/05/03 00:50:06;;;;;;;11.77;6.30;;;12.70;99.90;;;;;;5047125;28;20059;-58
2022/05/03 00:52:53;;;;;;;10.07;6.50;;;12.70;99.90;;;;;;5049026;28;20132;-61
2022/05/03 00:55:51;;;;;;;10.73;6.65;;;12.60;99.90;;;;;;5046643;28;20076;-58
2022/05/03 00:58:45;;;;;;;11.88;6.38;;;12.60;99.90;;;;;;5048717;28;20076;-58
2022/05/03 01:01:34;;;;;;;9.93;6.78;;;12.60;99.90;;;;;;5047836;28;20573;-58
2022/05/03 01:04:00;;;;;;;10.77;6.32;;;12.50;99.90;;;;;;5045373;28;20052;-56
2022/05/03 01:06:49;;;;;;;10.43;6.40;;;12.40;99.90;;;;;;5048991;28;20076;-57
2022/05/03 01:09:19;;;;;;;10.88;6.85;;;12.40;99.90;;;;;;5048320;28;20049;-58
2022/05/03 01:12:04;;;;;;;13.55;6.88;;;12.30;99.90;;;;;;5047267;28;20051;-57
2022/05/03 01:14:34;;;;;;;11.65;6.70;;;12.20;99.90;;;;;;5046864;28;20072;-58
2022/05/03 01:17:05;;;;;;;11.15;6.93;;;12.10;99.90;;;;;;5048018;28;20071;-58
2022/05/03 01:19:55;;;;;;;11.70;6.25;;;12.10;99.90;;;;;;5041830;28;20128;-58
2022/05/03 01:22:28;;;;;;;8.88;6.32;;;12.10;99.90;;;;;;5028646;28;20049;-59
2022/05/03 01:24:57;;;;;;;8.35;6.18;;;12.10;99.90;;;;;;5047235;28;20128;-58
2022/05/03 01:27:39;;;;;;;10.40;6.45;;;12.10;99.90;;;;;;5048389;28;20044;-58
2022/05/03 01:30:05;;;;;;;11.20;7.45;;;12.00;99.90;;;;;;5047279;28;20144;-58
2022/05/03 01:32:33;;;;;;;11.23;7.03;;;12.00;99.90;;;;;;5030237;28;20508;-58
2022/05/03 01:35:01;;;;;;;15.40;7.45;;;12.00;99.90;;;;;;5043165;28;20072;-57
2022/05/03 01:37:39;;;;;;;9.35;6.18;;;12.00;99.90;;;;;;5027456;28;20077;-58
2022/05/03 01:40:07;;;;;;;15.55;7.93;;;12.00;99.90;;;;;;5047040;28;20535;-58
2022/05/03 01:42:43;;;;;;;8.98;6.50;;;12.00;99.90;;;;;;5029624;28;20045;-59
2022/05/03 01:45:10;;;;;;;10.23;7.18;;;12.00;99.90;;;;;;5043173;28;20053;-58
2022/05/03 01:48:15;;;;;;;13.55;7.55;;;12.00;99.90;;;;;;5048324;28;20164;-57
2022/05/03 01:50:45;;;;;;;14.23;8.13;;;12.00;99.90;;;;;;5047494;28;20094;-57
2022/05/03 01:53:40;;;;;;;11.10;6.90;;;12.00;99.90;;;;;;5047745;28;20084;-57
2022/05/03 01:56:26;;;;;;;14.18;6.65;;;12.10;99.90;;;;;;5037085;28;20109;-56
2022/05/03 01:59:29;;;;;;;10.13;6.85;;;12.20;99.90;;;;;;5046799;28;20132;-57
2022/05/03 02:01:57;;;;;;;9.30;5.55;;;12.20;99.90;;;;;;5032902;28;20232;-58
2022/05/03 02:05:09;;;;;;;7.40;6.07;;;12.10;99.90;;;;;;5040688;28;20044;-58
2022/05/03 02:07:56;;;;;;;11.20;6.55;;;12.10;99.90;;;;;;5039517;28;20041;-60
2022/05/03 02:10:47;;;;;;;11.35;6.53;;;12.10;99.90;;;;;;5036315;28;20083;-58
2022/05/03 02:16:46;;;;;;;14.38;5.88;;;12.10;99.90;;;;;;5044908;28;20515;-58
2022/05/03 02:19:22;;;;;;;9.02;6.40;;;12.10;99.90;;;;;;5046148;28;20131;-58
2022/05/03 02:21:58;;;;;;;9.98;6.07;;;12.10;99.90;;;;;;5047343;28;20105;-58
2022/05/03 02:24:42;;;;;;;11.20;7.13;;;12.10;99.90;;;;;;5046711;28;20091;-58
2022/05/03 02:27:09;;;;;;;8.80;6.05;;;12.00;99.90;;;;;;5047066;28;20444;-57
2022/05/03 02:29:49;;;;;;;10.20;6.03;;;12.10;99.90;;;;;;5049327;28;20083;-58
2022/05/03 02:32:25;;;;;;;11.02;6.70;;;12.10;99.90;;;;;;5051635;28;20172;-56
2022/05/03 02:35:00;;;;;;;10.70;8.35;;;12.00;99.90;;;;;;5050067;28;20477;-58
2022/05/03 02:37:35;;;;;;;10.57;7.03;;;11.90;99.90;;;;;;5051673;28;20140;-58
2022/05/03 02:40:13;;;;;;;12.43;7.32;;;11.90;99.90;;;;;;5048957;28;20139;-57
2022/05/03 02:42:40;;;;;;;11.80;7.50;;;12.00;99.90;;;;;;5050935;28;20530;-56
2022/05/03 02:45:08;;;;;;;12.23;7.53;;;12.00;99.90;;;;;;5050576;28;20562;-58
2022/05/03 02:47:42;;;;;;;14.35;7.38;;;12.10;99.90;;;;;;5051321;28;20091;-57
2022/05/03 02:50:10;;;;;;;12.15;7.57;;;12.20;99.90;;;;;;5048331;28;20131;-58
2022/05/03 02:52:56;;;;;;;14.18;7.75;;;12.20;99.90;;;;;;5049824;28;20080;-56
2022/05/03 02:55:42;;;;;;;15.02;6.82;;;12.20;99.90;;;;;;5051549;28;20087;-57
2022/05/03 02:58:25;;;;;;;12.68;8.15;;;12.20;99.90;;;;;;5048720;28;20069;-56
2022/05/03 03:04:03;;;;;;;13.07;8.25;;;12.20;99.90;;;;;;5047603;28;20037;-58
2022/05/03 03:06:34;;;;;;;16.95;7.88;;;12.20;99.90;;;;;;5034566;28;20128;-58
2022/05/03 03:09:01;;;;;;;18.48;9.55;;;12.10;99.90;;;;;;5046352;28;20087;-58
2022/05/03 03:11:40;;;;;;;15.07;9.57;;;12.10;99.90;;;;;;5049623;28;20135;-58
2022/05/03 03:14:30;;;;;;;15.52;9.57;;;12.10;99.90;;;;;;5047617;28;20049;-58
2022/05/03 03:17:05;;;;;;;15.35;9.35;;;12.10;99.90;;;;;;5050028;28;20099;-57
2022/05/03 03:19:32;;;;;;;16.05;9.82;;;12.10;99.90;;;;;;5040526;28;20127;-58
2022/05/03 03:22:00;;;;;;;17.30;9.63;;;12.10;99.90;;;;;;5050903;28;20076;-56
2022/05/03 03:24:28;;;;;;;13.65;9.55;;;12.10;99.90;;;;;;5048945;28;20076;-57
2022/05/03 03:26:55;;;;;;;14.63;10.77;;;12.10;99.90;;;;;;5049250;28;20072;-58
2022/05/03 03:29:22;;;;;;;13.02;9.02;;;12.10;99.90;;;;;;5050831;28;20041;-58
2022/05/03 03:31:49;;;;;;;16.25;9.80;;;12.00;99.90;;;;;;5049782;28;20259;-57
2022/05/03 03:34:15;;;;;;;16.60;10.75;;;12.10;99.90;;;;;;5045972;28;20427;-57
2022/05/03 03:36:42;;;;;;;15.73;10.80;;;12.10;99.90;;;;;;5045563;28;20073;-57
2022/05/03 03:39:09;;;;;;;14.80;9.65;;;12.00;99.90;;;;;;5045733;28;20084;-60
2022/05/03 03:41:36;;;;;;;15.75;9.20;;;12.00;99.90;;;;;;5049010;28;20546;-58
2022/05/03 03:44:05;;;;;;;22.75;11.38;;;11.90;99.90;;;;;;5048953;28;20041;-57
2022/05/03 03:46:32;;;;;;;12.25;9.35;;;11.90;99.90;;;;;;5050377;28;20127;-58
2022/05/03 03:48:59;;;;;;;15.52;9.52;;;12.00;99.90;;;;;;5049273;28;20135;-57
2022/05/03 03:51:26;;;;;;;19.30;9.40;;;12.00;99.90;;;;;;5048142;28;20073;-61
2022/05/03 03:53:53;;;;;;;13.73;10.05;;;12.00;99.90;;;;;;5048648;28;20045;-57
2022/05/03 03:56:20;;;;;;;13.05;9.07;;;12.00;99.90;;;;;;5042299;28;20055;-56
2022/05/03 03:58:46;;;;;;;15.32;10.27;;;11.90;99.90;;;;;;5048705;28;20080;-55
2022/05/03 04:01:14;;;;;;;14.38;10.02;;;12.00;99.90;;;;;;5048416;28;20057;-58
2022/05/03 04:03:40;;;;;;;16.92;9.60;;;11.90;99.90;;;;;;5034796;28;20127;-55
2022/05/03 04:06:07;;;;;;;15.73;10.32;;;12.00;99.90;;;;;;5048575;28;20084;-55
2022/05/03 04:08:34;;;;;;;16.13;9.65;;;12.00;99.90;;;;;;5042937;28;20041;-58
2022/05/03 04:11:14;;;;;;;14.90;10.55;;;11.90;99.90;;;;;;5049961;28;20051;-57
2022/05/03 04:13:40;;;;;;;13.93;9.32;;;12.00;99.90;;;;;;5049682;28;20080;-58
2022/05/03 04:16:07;;;;;;;14.63;10.00;;;11.90;99.90;;;;;;5043513;28;20063;-55
2022/05/03 04:18:44;;;;;;;17.50;10.20;;;11.90;99.90;;;;;;5048402;28;20052;-58
2022/05/03 04:21:18;;;;;;;17.90;10.30;;;11.90;99.90;;;;;;5048402;28;20065;-58
2022/05/03 04:23:45;;;;;;;15.35;10.52;;;11.90;99.90;;;;;;5049508;28;20060;-58
2022/05/03 04:26:12;;;;;;;16.15;11.35;;;11.90;99.90;;;;;;5049497;28;20560;-59
2022/05/03 04:28:39;;;;;;;16.45;10.48;;;11.80;99.90;;;;;;5049817;28;20198;-57
2022/05/03 04:31:06;;;;;;;18.98;11.30;;;11.80;99.90;;;;;;5048629;28;20155;-54
2022/05/03 04:33:33;;;;;;;15.48;10.38;;;11.80;99.90;;;;;;5049411;28;20148;-56
2022/05/03 04:35:59;;;;;;;16.55;10.77;;;11.90;99.90;;;;;;5048892;28;20080;-59
2022/05/03 04:38:26;;;;;;;17.45;10.10;;;11.80;99.90;;;;;;5047108;28;20114;-57
2022/05/03 04:41:02;;;;;;;21.42;11.38;;;11.90;99.90;;;;;;5048127;28;20077;-56
2022/05/03 04:43:29;;;;;;;13.15;10.00;;;11.80;99.90;;;;;;5048079;28;20076;-57
2022/05/03 04:45:56;;;;;;;16.63;10.52;;;11.90;99.90;;;;;;5049273;28;20072;-57
2022/05/03 04:48:22;;;;;;;14.65;10.40;;;11.90;99.90;;;;;;5047754;28;20066;-58
2022/05/03 04:50:49;;;;;;;18.17;10.40;;;11.90;99.90;;;;;;5044885;28;20080;-59
2022/05/03 04:53:16;;;;;;;16.40;11.05;;;11.80;99.90;;;;;;5044232;28;20136;-58
2022/05/03 04:55:43;;;;;;;15.68;10.75;;;11.80;99.90;;;;;;5048703;28;20202;-57
2022/05/03 04:58:10;;;;;;;18.45;10.98;;;11.80;99.90;;;;;;5048959;28;20574;-57
2022/05/03 05:00:37;;;;;;;18.15;11.52;;;11.80;99.90;;;;;;5048529;28;20052;-57
2022/05/03 05:03:03;;;;;;;19.27;12.13;;;11.90;99.90;;;;;;5049025;28;20381;-58
2022/05/03 05:05:30;;;;;;;19.13;12.35;;;11.90;99.90;;;;;;5039926;28;20137;-57
2022/05/03 05:08:04;;;;;;;16.90;12.15;;;11.80;99.90;;;;;;5047797;28;20128;-57
2022/05/03 05:10:32;;;;;;;19.13;12.30;;;11.80;99.90;;;;;;5031263;28;20522;-58
2022/05/03 05:13:00;;;;;;;19.05;12.63;;;11.80;99.90;;;;;;5048740;28;20052;-58
2022/05/03 05:15:29;;;;;;;19.83;12.23;;;11.80;99.90;;;;;;5048667;28;20075;-58
2022/05/03 05:17:57;;;;;;;23.77;13.55;;;11.80;99.90;;;;;;5047998;28;20133;-59
2022/05/03 05:20:25;;;;;;;22.48;13.02;;;11.90;99.90;;;;;;5039943;28;20080;-58
2022/05/03 05:22:52;;;;;;;19.98;13.00;;;11.80;99.90;;;;;;5048458;28;20128;-58
2022/05/03 05:25:38;;;;;;;19.58;13.05;;;11.80;99.90;;;;;;5048278;28;20047;-58
2022/05/03 05:28:05;;;;;;;21.42;13.15;;;11.90;99.90;;;;;;5048256;28;20130;-57
2022/05/03 05:30:32;;;;;;;20.88;13.00;;;11.90;99.90;;;;;;5047245;28;20049;-58
2022/05/03 05:32:59;;;;;;;32.72;15.10;;;12.00;99.90;;;;;;5047540;28;20084;-58
2022/05/03 05:35:26;;;;;;;26.65;15.55;;;12.00;99.90;;;;;;5045885;28;20538;-56
2022/05/03 05:37:52;;;;;;;29.67;17.33;;;12.00;99.90;;;;;;5047782;28;20123;-59
2022/05/03 05:40:19;;;;;;;25.50;15.20;;;11.90;99.90;;;;;;5046349;28;20073;-58
2022/05/03 05:42:46;;;;;;;26.70;16.10;;;11.90;99.90;;;;;;5047677;28;20080;-59
2022/05/03 05:45:13;;;;;;;28.05;16.70;;;11.90;99.90;;;;;;5047964;28;20091;-57
2022/05/03 05:47:40;;;;;;;29.17;16.75;;;12.00;99.90;;;;;;5048059;28;20045;-60
2022/05/03 05:50:08;;;;;;;27.48;16.65;;;11.90;99.90;;;;;;5047428;28;20128;-59
2022/05/03 05:55:20;;;;;;;46.88;19.65;;;11.90;99.90;;;;;;5047615;28;20143;-59
2022/05/03 05:57:47;;;;;;;29.67;17.58;;;12.00;99.90;;;;;;5047904;28;20160;-57
2022/05/03 06:00:14;;;;;;;25.35;16.88;;;12.00;99.90;;;;;;5047736;28;20053;-58
2022/05/03 06:02:41;;;;;;;36.42;18.02;;;12.10;99.90;;;;;;5047495;28;20037;-58
2022/05/03 06:05:08;;;;;;;34.33;16.40;;;12.10;99.90;;;;;;5031903;28;20049;-58
2022/05/03 06:07:34;;;;;;;31.45;18.55;;;12.20;99.90;;;;;;5031909;28;20040;-59
2022/05/03 06:10:01;;;;;;;36.15;18.85;;;12.20;99.90;;;;;;5034919;28;20710;-56
2022/05/03 06:12:28;;;;;;;35.03;19.65;;;12.20;99.90;;;;;;5031238;28;20124;-60
2022/05/03 06:14:55;;;;;;;32.65;20.10;;;12.20;99.90;;;;;;5047567;28;20319;-58
2022/05/03 06:17:21;;;;;;;33.13;18.60;;;12.10;99.90;;;;;;5047414;28;20124;-59
2022/05/03 06:19:49;;;;;;;34.42;19.00;;;12.20;99.90;;;;;;5046096;28;20127;-59
2022/05/03 06:22:16;;;;;;;36.88;20.30;;;12.20;99.90;;;;;;5047296;28;20052;-59
2022/05/03 06:24:47;;;;;;;32.78;18.38;;;12.20;99.90;;;;;;5038293;28;20493;-58
2022/05/03 06:27:14;;;;;;;31.55;19.80;;;12.30;99.90;;;;;;5047465;28;20049;-57
2022/05/03 06:29:42;;;;;;;32.83;19.98;;;12.30;99.90;;;;;;5047321;28;20114;-59
2022/05/03 06:32:13;;;;;;;32.35;19.15;;;12.40;99.90;;;;;;5047650;28;20084;-60
2022/05/03 06:34:39;;;;;;;33.45;19.75;;;12.40;99.90;;;;;;5045404;28;20115;-59
2022/05/03 06:37:06;;;;;;;32.60;19.67;;;12.40;99.90;;;;;;5047527;28;20041;-60
2022/05/03 06:39:35;;;;;;;33.13;19.30;;;12.40;99.90;;;;;;5045441;28;20128;-60
2022/05/03 06:42:06;;;;;;;33.47;19.02;;;12.40;99.90;;;;;;5051293;28;20510;-60
2022/05/03 06:44:33;;;;;;;36.28;20.65;;;12.50;99.90;;;;;;5045377;28;20115;-60
2022/05/03 06:47:00;;;;;;;37.40;18.40;;;12.50;99.90;;;;;;5045703;28;20087;-60
2022/05/03 06:49:27;;;;;;;33.65;20.65;;;12.50;99.90;;;;;;5042102;28;20041;-60
2022/05/03 06:51:53;;;;;;;32.28;19.17;;;12.50;99.90;;;;;;5044196;28;20041;-59
2022/05/03 06:54:20;;;;;;;42.60;21.00;;;12.50;99.90;;;;;;5043943;28;20131;-60
2022/05/03 06:56:47;;;;;;;38.20;19.25;;;12.50;99.90;;;;;;5040844;28;20073;-60
2022/05/03 06:59:14;;;;;;;46.05;18.88;;;12.50;99.90;;;;;;5043873;28;20051;-62
2022/05/03 07:01:41;;;;;;;37.85;17.48;;;12.50;99.90;;;;;;5043704;28;20072;-61
2022/05/03 07:04:11;;;;;;;33.53;18.27;;;12.50;99.90;;;;;;5041524;28;20063;-60
2022/05/03 07:06:38;;;;;;;31.63;19.27;;;12.50;99.90;;;;;;5045374;28;20176;-57
2022/05/03 07:09:05;;;;;;;34.85;19.95;;;12.60;99.90;;;;;;5045553;28;20286;-58
2022/05/03 07:11:31;;;;;;;37.55;17.83;;;12.60;99.90;;;;;;5045401;28;20140;-56
2022/05/03 07:13:58;;;;;;;32.72;19.15;;;12.60;99.90;;;;;;5046262;28;20122;-61
2022/05/03 07:16:25;;;;;;;39.65;18.15;;;12.60;99.90;;;;;;5049271;28;20048;-59
2022/05/03 07:24:23;;;;;;;31.65;17.88;;;12.70;99.90;;;;;;5050386;28;20049;-58
2022/05/03 07:26:51;;;;;;;28.02;15.70;;;12.80;99.90;;;;;;5049083;28;20144;-55
2022/05/03 07:29:18;;;;;;;35.13;16.65;;;12.80;99.90;;;;;;5049783;28;20084;-57
2022/05/03 07:31:45;;;;;;;36.58;17.23;;;12.90;99.90;;;;;;5049623;28;20080;-56
2022/05/03 07:34:11;;;;;;;29.83;15.50;;;12.80;99.90;;;;;;5048717;28;20056;-59
2022/05/03 07:36:39;;;;;;;29.02;16.40;;;12.80;99.90;;;;;;5048656;28;20041;-56
2022/05/03 07:39:06;;;;;;;30.58;16.00;;;12.80;99.90;;;;;;5049378;28;20049;-56
2022/05/03 07:41:33;;;;;;;32.42;16.35;;;12.80;99.90;;;;;;5047589;28;20753;-57
2022/05/03 07:43:59;;;;;;;33.83;15.70;;;12.80;99.90;;;;;;5049891;28;20472;-57
2022/05/03 07:46:26;;;;;;;30.85;14.88;;;12.80;99.90;;;;;;5049572;28;20127;-56
2022/05/03 07:48:54;;;;;;;29.67;16.30;;;12.80;99.90;;;;;;5049291;28;20134;-54
2022/05/03 07:51:21;;;;;;;30.48;14.60;;;12.90;99.90;;;;;;5049580;28;20072;-57
2022/05/03 07:53:48;;;;;;;26.83;14.75;;;12.90;99.90;;;;;;5049514;28;20080;-57
2022/05/03 07:56:15;;;;;;;30.83;14.80;;;12.90;99.90;;;;;;5048831;28;20803;-55
2022/05/03 07:58:41;;;;;;;25.55;14.25;;;13.10;99.90;;;;;;5049321;28;20077;-56
2022/05/03 08:01:08;;;;;;;30.35;15.73;;;13.00;99.90;;;;;;5048623;28;20148;-57
2022/05/03 08:03:35;;;;;;;31.50;14.95;;;13.00;99.90;;;;;;5048924;28;20041;-56
2022/05/03 08:06:02;;;;;;;26.17;14.07;;;13.00;99.90;;;;;;5048950;28;20111;-53
2022/05/03 08:08:29;;;;;;;31.48;17.10;;;13.10;99.90;;;;;;5048178;28;20515;-56
2022/05/03 08:10:56;;;;;;;35.95;17.00;;;13.00;99.90;;;;;;5048816;28;20127;-57
2022/05/03 08:13:23;;;;;;;34.70;17.08;;;13.00;99.90;;;;;;5049041;28;20106;-55
2022/05/03 08:15:50;;;;;;;39.60;16.30;;;13.10;99.90;;;;;;5048604;28;20095;-58
2022/05/03 08:18:16;;;;;;;35.10;16.10;;;13.00;99.90;;;;;;5049363;28;20045;-57
2022/05/03 08:20:43;;;;;;;37.50;18.02;;;13.00;99.90;;;;;;5048995;28;20146;-57
2022/05/03 08:23:10;;;;;;;39.38;18.77;;;13.00;99.90;;;;;;5048669;28;20132;-58
2022/05/03 08:25:37;;;;;;;38.30;17.80;;;13.00;99.90;;;;;;5047637;28;20092;-54
2022/05/03 08:28:04;;;;;;;41.63;18.55;;;13.00;99.90;;;;;;5047951;28;20049;-56
2022/05/03 08:30:31;;;;;;;40.75;19.45;;;12.90;99.90;;;;;;5048798;28;20136;-54
2022/05/03 08:32:58;;;;;;;35.88;16.98;;;12.90;99.90;;;;;;5048092;28;20060;-58
2022/05/03 08:35:25;;;;;;;42.10;19.00;;;13.00;99.90;;;;;;5048634;28;20160;-55
2022/05/03 08:43:24;;;;;;;36.10;17.42;;;13.10;99.90;;;;;;5048313;28;20041;-57
2022/05/03 08:45:51;;;;;;;43.97;19.42;;;13.10;99.90;;;;;;5047893;28;20088;-55
2022/05/03 08:48:18;;;;;;;34.95;17.15;;;13.10;99.90;;;;;;5048486;28;20483;-56
2022/05/03 08:50:45;;;;;;;44.95;18.67;;;13.00;99.90;;;;;;5048511;28;20064;-58
2022/05/03 08:53:12;;;;;;;41.67;17.20;;;13.10;99.90;;;;;;5048615;28;20167;-57
2022/05/03 08:55:40;;;;;;;38.35;17.33;;;13.10;99.90;;;;;;5046877;28;20554;-57
2022/05/03 08:58:07;;;;;;;37.42;17.40;;;13.10;99.90;;;;;;5048300;28;20081;-56
2022/05/03 09:00:34;;;;;;;40.78;18.98;;;13.10;99.90;;;;;;5046844;28;20136;-54
2022/05/03 09:03:01;;;;;;;37.17;16.90;;;13.20;99.90;;;;;;5048590;28;20049;-60
2022/05/03 09:05:28;;;;;;;40.03;18.05;;;13.30;99.90;;;;;;5046922;28;20541;-60
2022/05/03 09:07:56;;;;;;;45.60;18.45;;;13.30;99.90;;;;;;5048576;28;20063;-55
2022/05/03 09:10:25;;;;;;;45.58;19.10;;;13.30;99.90;;;;;;5048261;28;20045;-56
2022/05/03 09:12:52;;;;;;;40.95;20.50;;;13.40;99.90;;;;;;5047407;28;20098;-57
2022/05/03 09:15:36;;;;;;;44.80;19.58;;;13.40;99.90;;;;;;5048339;28;20737;-57
2022/05/03 09:18:03;;;;;;;40.28;16.48;;;13.30;99.90;;;;;;5038804;28;20102;-57
2022/05/03 09:26:26;;;;;;;42.80;18.15;;;13.30;99.90;;;;;;5047271;28;20135;-55
2022/05/03 09:29:01;;;;;;;37.30;17.35;;;13.30;99.90;;;;;;5047049;28;20048;-57
2022/05/03 09:31:42;;;;;;;41.80;17.52;;;13.30;99.90;;;;;;5048155;28;20132;-56
2022/05/03 09:34:27;;;;;;;37.08;17.02;;;13.30;99.90;;;;;;5047933;28;20045;-56
2022/05/03 09:37:09;;;;;;;37.70;16.65;;;13.30;99.90;;;;;;5046615;28;20041;-58
2022/05/03 09:39:41;;;;;;;35.10;16.25;;;13.30;99.90;;;;;;5046807;28;20087;-58
2022/05/03 09:42:10;;;;;;;34.55;16.27;;;13.20;99.90;;;;;;5047799;28;20049;-57
2022/05/03 09:44:58;;;;;;;37.50;16.27;;;13.00;99.90;;;;;;5047810;28;20045;-57
2022/05/03 09:47:30;;;;;;;37.38;15.75;;;12.90;99.90;;;;;;5048021;28;20492;-57
2022/05/03 09:49:56;;;;;;;28.90;14.77;;;12.90;99.90;;;;;;5047341;28;20102;-56
2022/05/03 09:52:30;;;;;;;34.20;15.90;;;13.00;99.90;;;;;;5047907;28;20052;-53
2022/05/03 09:55:05;;;;;;;36.67;16.10;;;13.00;99.90;;;;;;5046956;28;20479;-57
2022/05/03 09:57:33;;;;;;;26.65;13.00;;;13.10;99.90;;;;;;5047375;28;20591;-55
2022/05/03 10:00:01;;;;;;;28.65;14.18;;;13.20;99.90;;;;;;5047614;28;20488;-59
2022/05/03 10:02:29;;;;;;;29.48;12.63;;;13.40;99.90;;;;;;5045800;28;20512;-57
2022/05/03 10:04:56;;;;;;;27.10;13.30;;;13.50;99.90;;;;;;5046355;28;20049;-57
2022/05/03 10:07:24;;;;;;;25.60;13.18;;;13.70;99.90;;;;;;5047530;28;20102;-57
2022/05/03 10:09:51;;;;;;;27.50;11.98;;;13.80;99.90;;;;;;5046215;28;20048;-58
2022/05/03 10:12:19;;;;;;;24.15;13.40;;;14.00;99.90;;;;;;5046745;28;20045;-56
2022/05/03 10:14:47;;;;;;;20.02;11.82;;;14.30;99.90;;;;;;5047302;28;20080;-54
2022/05/03 10:23:31;;;;;;;24.70;11.85;;;14.70;99.90;;;;;;5031574;28;20052;-59
2022/05/03 10:26:08;;;;;;;28.45;12.23;;;14.70;99.90;;;;;;5047186;28;20053;-58
2022/05/03 10:29:02;;;;;;;21.33;10.55;;;14.60;99.90;;;;;;5045995;28;20496;-59
2022/05/03 10:31:28;;;;;;;27.23;13.52;;;14.50;99.90;;;;;;5045174;28;20119;-58
2022/05/03 10:33:57;;;;;;;22.42;11.85;;;14.30;99.90;;;;;;5045115;28;20049;-53
2022/05/03 10:36:33;;;;;;;19.00;11.13;;;14.30;99.90;;;;;;5046597;28;20091;-53
2022/05/03 10:39:18;;;;;;;26.05;12.90;;;14.30;99.90;;;;;;5046897;28;20051;-58
2022/05/03 10:41:58;;;;;;;28.92;15.27;;;14.30;99.90;;;;;;5031278;28;20053;-56
2022/05/03 10:44:53;;;;;;;31.30;15.20;;;14.20;99.90;;;;;;5037088;28;20132;-57
2022/05/03 10:47:38;;;;;;;31.92;13.85;;;14.10;99.90;;;;;;5047123;28;20053;-58
2022/05/03 10:50:19;;;;;;;31.35;14.70;;;14.00;99.90;;;;;;5047573;28;20048;-56
2022/05/03 10:53:06;;;;;;;31.08;13.95;;;14.00;99.90;;;;;;5051208;28;20087;-56
2022/05/03 10:55:38;;;;;;;23.92;14.77;;;14.00;99.90;;;;;;5050103;28;20132;-57
2022/05/03 10:58:23;;;;;;;26.17;15.15;;;14.00;99.90;;;;;;5049376;28;20133;-56
2022/05/03 11:01:10;;;;;;;29.98;16.33;;;14.00;99.90;;;;;;5050380;28;20053;-57
2022/05/03 11:03:40;;;;;;;28.98;13.73;;;14.10;99.90;;;;;;5050550;28;20401;-54
2022/05/03 11:06:22;;;;;;;25.15;15.30;;;14.10;99.90;;;;;;5050861;28;20115;-57
2022/05/03 11:08:59;;;;;;;31.17;16.42;;;14.20;99.90;;;;;;5049564;28;20113;-51
2022/05/03 11:14:24;;;;;;;35.75;17.20;;;14.20;99.90;;;;;;5050060;28;20111;-56
2022/05/03 11:17:04;;;;;;;34.88;17.58;;;14.20;99.90;;;;;;5035148;28;20110;-56
2022/05/03 11:19:51;;;;;;;32.05;15.85;;;14.20;99.90;;;;;;5047339;28;20132;-58
2022/05/03 11:22:25;;;;;;;29.63;14.70;;;14.20;99.90;;;;;;5032575;28;20041;-57
2022/05/03 11:24:59;;;;;;;29.05;16.80;;;14.20;99.90;;;;;;5046864;28;20043;-54
2022/05/03 11:27:26;;;;;;;28.63;16.02;;;14.30;99.90;;;;;;5048613;28;20068;-59
2022/05/03 11:30:01;;;;;;;40.58;20.15;;;14.20;99.90;;;;;;5046478;28;20087;-57
2022/05/03 11:32:38;;;;;;;34.85;20.05;;;14.30;99.90;;;;;;5048823;28;20060;-57
2022/05/03 11:35:16;;;;;;;36.40;21.15;;;14.40;99.90;;;;;;5047306;28;20434;-57
2022/05/03 11:37:55;;;;;;;33.58;19.30;;;14.40;99.90;;;;;;5049027;28;20096;-55
2022/05/03 11:40:23;;;;;;;39.92;19.80;;;14.30;99.90;;;;;;5048217;28;20080;-57
2022/05/03 11:42:49;;;;;;;38.60;20.75;;;14.30;99.90;;;;;;5049984;28;20475;-57
2022/05/03 11:45:17;;;;;;;32.03;19.20;;;14.30;99.90;;;;;;5048485;28;20076;-58
2022/05/03 11:47:47;;;;;;;38.17;19.75;;;14.30;99.90;;;;;;5030054;28;20459;-56
2022/05/03 11:55:58;;;;;;;34.38;19.13;;;14.40;99.90;;;;;;5048477;28;20055;-57
2022/05/03 11:55:59;;;;;;;33.92;16.17;;;14.40;99.90;;;;;;5048272;28;20064;-58
2022/05/03 11:58:31;;;;;;;33.70;17.38;;;14.50;99.90;;;;;;5048033;28;20520;-59
2022/05/03 12:00:58;;;;;;;32.63;18.48;;;14.60;99.90;;;;;;5049287;28;20065;-55
2022/05/03 12:03:25;;;;;;;35.65;17.42;;;14.60;99.90;;;;;;5048525;28;20084;-58
2022/05/03 12:06:02;;;;;;;31.52;17.80;;;14.60;99.90;;;;;;5049021;28;20056;-58
2022/05/03 12:08:30;;;;;;;31.42;17.38;;;14.50;99.90;;;;;;5044974;28;20055;-56
2022/05/03 12:10:56;;;;;;;39.78;20.95;;;14.50;99.90;;;;;;5049267;28;20077;-56
2022/05/03 12:13:23;;;;;;;31.33;17.30;;;14.50;99.90;;;;;;5048956;28;20464;-55
2022/05/03 12:16:07;;;;;;;27.15;15.95;;;14.50;99.90;;;;;;5048981;28;20248;-56
2022/05/03 12:18:35;;;;;;;37.10;16.33;;;14.50;99.90;;;;;;5048099;28;20052;-55
2022/05/03 12:21:18;;;;;;;33.08;17.92;;;14.50;99.90;;;;;;5048854;28;20128;-57
2022/05/03 12:23:50;;;;;;;33.97;17.03;;;14.50;99.90;;;;;;5049744;28;20072;-57
2022/05/03 12:26:17;;;;;;;29.38;16.27;;;14.40;99.90;;;;;;5048730;28;20293;-57
2022/05/03 12:28:58;;;;;;;32.17;16.67;;;14.40;99.90;;;;;;5049263;28;20221;-55
2022/05/03 12:31:36;;;;;;;32.45;18.65;;;14.40;99.90;;;;;;5048714;28;20081;-54
2022/05/03 12:34:05;;;;;;;41.30;18.65;;;14.40;99.90;;;;;;5043594;28;20096;-56
2022/05/03 12:36:42;;;;;;;31.08;18.10;;;14.30;99.90;;;;;;5047494;28;20139;-56
2022/05/03 12:39:15;;;;;;;30.10;16.65;;;14.30;99.90;;;;;;5047571;28;20280;-57
2022/05/03 12:42:02;;;;;;;25.73;16.60;;;14.20;99.90;;;;;;5048429;28;20545;-58
2022/05/03 12:44:30;;;;;;;35.13;19.38;;;14.30;99.90;;;;;;5048752;28;20110;-57
2022/05/03 12:47:09;;;;;;;31.33;18.80;;;14.30;99.90;;;;;;5048327;28;20155;-56
2022/05/03 12:49:37;;;;;;;32.95;19.17;;;14.20;99.90;;;;;;5048519;28;20091;-57
2022/05/03 12:52:04;;;;;;;35.10;20.48;;;14.20;99.90;;;;;;5048441;28;20045;-58
2022/05/03 12:54:31;;;;;;;36.40;18.80;;;14.20;99.90;;;;;;5048033;28;20072;-59
2022/05/03 12:59:44;;;;;;;35.63;19.50;;;14.10;99.90;;;;;;5048717;28;20080;-58
2022/05/03 13:02:10;;;;;;;29.85;18.17;;;14.20;99.90;;;;;;5048239;28;20140;-56
2022/05/03 13:04:37;;;;;;;47.53;20.35;;;14.20;99.90;;;;;;5048319;28;20041;-56
2022/05/03 13:07:04;;;;;;;32.67;17.83;;;14.20;99.90;;;;;;5047777;28;20072;-57
2022/05/03 13:09:31;;;;;;;33.88;18.70;;;14.20;99.90;;;;;;5048564;28;20041;-57
2022/05/03 13:11:59;;;;;;;38.03;20.35;;;14.20;99.90;;;;;;5047999;28;20135;-57
2022/05/03 13:14:26;;;;;;;37.72;18.55;;;14.20;99.90;;;;;;5047775;28;20085;-58
2022/05/03 13:16:53;;;;;;;35.00;22.83;;;14.20;99.90;;;;;;5047985;28;20087;-58
2022/05/03 13:19:20;;;;;;;43.00;20.90;;;14.20;99.90;;;;;;5048556;28;20130;-58
2022/05/03 13:21:48;;;;;;;35.05;18.48;;;14.20;99.90;;;;;;5048178;28;20068;-58
2022/05/03 13:24:14;;;;;;;41.40;18.27;;;14.20;99.90;;;;;;5047971;28;20092;-57
2022/05/03 13:26:41;;;;;;;44.33;18.30;;;14.20;99.90;;;;;;5047916;28;20136;-57
2022/05/03 13:29:10;;;;;;;46.10;21.38;;;14.30;99.90;;;;;;5047692;28;20075;-57
2022/05/03 13:31:40;;;;;;;35.10;19.27;;;14.30;99.90;;;;;;5046863;28;20053;-56
2022/05/03 13:34:08;;;;;;;37.40;20.52;;;14.30;99.90;;;;;;5047316;28;20155;-57